createdAt,value
2024-04-10T00:01:07.124Z,1.00
2024-04-10T00:03:36.976Z,0.90
2024-04-10T00:06:08.717Z,0.70
2024-04-10T00:08:39.607Z,1.20
2024-04-10T00:11:07.538Z,1.20
2024-04-10T00:13:38.189Z,0.77
2024-04-10T00:16:06.916Z,0.80
2024-04-10T00:18:38.080Z,0.80
2024-04-10T00:21:08.680Z,0.90
2024-04-10T00:23:38.500Z,0.80
2024-04-10T00:26:05.777Z,0.80
2024-04-10T00:28:35.791Z,0.80
2024-04-10T00:31:06.506Z,0.97
2024-04-10T00:33:40.350Z,0.87
2024-04-10T00:36:12.462Z,0.80
2024-04-10T00:38:42.117Z,0.93
2024-04-10T00:41:09.360Z,0.93
2024-04-10T00:43:39.273Z,0.60
2024-04-10T00:46:10.913Z,0.80
2024-04-10T00:48:41.590Z,0.70
2024-04-10T00:51:12.638Z,0.70
2024-04-10T00:53:43.784Z,0.90
2024-04-10T00:56:12.004Z,1.00
2024-04-10T00:58:42.677Z,1.00
2024-04-10T01:01:11.550Z,0.73
2024-04-10T01:03:42.387Z,0.93
2024-04-10T01:06:12.600Z,0.90
2024-04-10T01:08:42.903Z,0.90
2024-04-10T01:11:11.967Z,0.83
2024-04-10T01:13:41.898Z,0.77
2024-04-10T01:16:08.955Z,0.90
2024-04-10T01:18:38.698Z,0.90
2024-04-10T01:21:05.824Z,1.13
2024-04-10T01:23:38.134Z,0.70
2024-04-10T01:26:05.231Z,0.80
2024-04-10T01:28:34.972Z,1.10
2024-04-10T01:31:02.104Z,1.73
2024-04-10T01:33:32.145Z,0.83
2024-04-10T01:35:59.272Z,0.80
2024-04-10T01:38:30.116Z,0.93
2024-04-10T01:41:00.053Z,1.00
2024-04-10T01:43:29.821Z,0.97
2024-04-10T01:45:57.082Z,1.20
2024-04-10T01:48:27.192Z,1.40
2024-04-10T01:50:54.310Z,0.93
2024-04-10T01:53:24.013Z,1.20
2024-04-10T01:55:52.486Z,1.10
2024-04-10T01:58:24.728Z,1.20
2024-04-10T02:00:51.836Z,0.90
2024-04-10T02:03:21.668Z,0.87
2024-04-10T02:05:48.738Z,0.90
2024-04-10T02:08:18.478Z,1.17
2024-04-10T02:10:45.540Z,0.90
2024-04-10T02:13:15.195Z,0.80
2024-04-10T02:15:44.838Z,1.30
2024-04-10T02:18:15.524Z,1.00
2024-04-10T02:20:42.724Z,1.40
2024-04-10T02:23:12.571Z,1.10
2024-04-10T02:25:39.800Z,1.10
2024-04-10T02:28:09.542Z,1.53
2024-04-10T02:30:36.556Z,0.90
2024-04-10T02:33:09.018Z,1.50
2024-04-10T02:35:36.265Z,1.00
2024-04-10T02:38:06.917Z,1.50
2024-04-10T02:40:34.456Z,3.40
2024-04-10T02:43:08.433Z,2.63
2024-04-10T02:45:35.545Z,1.80
2024-04-10T02:48:08.166Z,14.17
2024-04-10T02:50:35.432Z,8.70
2024-04-10T02:53:05.264Z,4.10
2024-04-10T02:55:32.348Z,2.80
2024-04-10T02:58:01.953Z,2.67
2024-04-10T03:00:29.263Z,5.00
2024-04-10T03:02:58.995Z,4.03
2024-04-10T03:05:29.165Z,2.67
2024-04-10T03:07:58.931Z,2.60
2024-04-10T03:10:26.028Z,1.87
2024-04-10T03:12:55.688Z,1.53
2024-04-10T03:15:22.841Z,1.80
2024-04-10T03:17:53.257Z,1.80
2024-04-10T03:20:20.524Z,1.50
2024-04-10T03:22:55.451Z,1.57
2024-04-10T03:25:22.925Z,2.30
2024-04-10T03:27:52.639Z,1.60
2024-04-10T03:30:19.827Z,3.47
2024-04-10T03:32:49.656Z,2.33
2024-04-10T03:35:16.936Z,1.93
2024-04-10T03:37:46.588Z,1.70
2024-04-10T03:40:16.939Z,1.27
2024-04-10T03:42:48.160Z,1.20
2024-04-10T03:45:18.752Z,1.50
2024-04-10T03:47:49.057Z,1.40
2024-04-10T03:50:20.015Z,1.00
2024-04-10T03:52:49.938Z,1.10
2024-04-10T03:55:21.176Z,1.30
2024-04-10T03:57:50.962Z,1.03
2024-04-10T04:00:18.120Z,1.27
2024-04-10T04:02:48.777Z,1.10
2024-04-10T04:05:16.190Z,1.00
2024-04-10T04:07:45.871Z,1.53
2024-04-10T04:10:12.908Z,1.50
2024-04-10T04:12:45.112Z,1.20
2024-04-10T04:15:12.126Z,1.10
2024-04-10T04:19:13.433Z,1.30
2024-04-10T04:21:40.497Z,1.20
2024-04-10T04:24:10.465Z,1.03
2024-04-10T04:26:37.655Z,1.00
2024-04-10T04:29:07.478Z,0.87
2024-04-10T04:31:34.536Z,1.30
2024-04-10T04:34:11.009Z,1.10
2024-04-10T04:36:40.995Z,1.30
2024-04-10T04:39:14.552Z,1.20
2024-04-10T04:41:42.245Z,1.40
2024-04-10T04:44:14.459Z,1.03
2024-04-10T04:46:41.934Z,1.33
2024-04-10T04:49:11.802Z,0.80
2024-04-10T04:51:42.460Z,1.30
2024-04-10T04:54:12.133Z,1.20
2024-04-10T04:56:39.298Z,1.00
2024-04-10T04:59:11.346Z,1.00
2024-04-10T05:01:38.420Z,1.00
2024-04-10T05:04:25.442Z,1.50
2024-04-10T05:06:57.726Z,1.20
2024-04-10T05:09:27.998Z,1.37
2024-04-10T05:11:55.576Z,1.50
2024-04-10T05:14:25.905Z,1.40
2024-04-10T05:16:53.023Z,1.70
2024-04-10T05:19:22.817Z,1.30
2024-04-10T05:21:49.900Z,1.10
2024-04-10T05:24:24.738Z,1.57
2024-04-10T05:26:52.212Z,1.23
2024-04-10T05:29:22.015Z,1.10
2024-04-10T05:31:49.072Z,1.30
2024-04-10T05:34:19.851Z,1.53
2024-04-10T05:36:47.238Z,1.30
2024-04-10T05:39:24.249Z,1.53
2024-04-10T05:41:51.348Z,1.40
2024-04-10T05:44:21.485Z,1.40
2024-04-10T05:46:48.656Z,1.77
2024-04-10T05:49:18.373Z,1.20
2024-04-10T05:51:45.484Z,1.90
2024-04-10T05:54:15.105Z,1.30
2024-04-10T05:56:45.058Z,1.47
2024-04-10T05:59:14.844Z,1.03
2024-04-10T06:01:41.898Z,1.80
2024-04-10T06:04:11.549Z,1.70
2024-04-10T06:06:38.734Z,1.40
2024-04-10T06:09:08.355Z,1.47
2024-04-10T06:11:35.672Z,1.50
2024-04-10T06:14:08.035Z,1.13
2024-04-10T06:16:35.183Z,1.30
2024-04-10T06:19:05.019Z,1.40
2024-04-10T06:21:32.101Z,1.40
2024-04-10T06:24:01.703Z,1.60
2024-04-10T06:26:28.831Z,1.57
2024-04-10T06:28:58.807Z,1.53
2024-04-10T06:31:28.555Z,1.40
2024-04-10T06:33:58.238Z,1.07
2024-04-10T06:36:25.424Z,1.90
2024-04-10T06:38:55.497Z,1.73
2024-04-10T06:41:23.554Z,1.60
2024-04-10T06:43:54.062Z,1.73
2024-04-10T06:46:21.306Z,1.40
2024-04-10T06:48:54.667Z,1.47
2024-04-10T06:51:21.744Z,1.50
2024-04-10T06:53:51.960Z,1.57
2024-04-10T06:56:19.048Z,1.30
2024-04-10T06:58:48.714Z,1.50
2024-04-10T07:01:18.405Z,1.83
2024-04-10T07:03:45.859Z,1.50
2024-04-10T07:06:19.168Z,1.50
2024-04-10T07:08:48.899Z,1.60
2024-04-10T07:11:22.238Z,2.00
2024-04-10T07:13:50.273Z,1.97
2024-04-10T07:16:20.834Z,1.80
2024-04-10T07:18:48.209Z,2.00
2024-04-10T07:21:20.737Z,1.47
2024-04-10T07:23:49.920Z,1.50
2024-04-10T07:26:21.718Z,2.67
2024-04-10T07:28:51.750Z,1.80
2024-04-10T07:31:23.269Z,1.83
2024-04-10T07:33:50.974Z,1.73
2024-04-10T07:36:23.589Z,1.77
2024-04-10T07:38:53.764Z,2.07
2024-04-10T07:41:23.742Z,2.10
2024-04-10T07:43:51.187Z,1.60
2024-04-10T07:46:22.225Z,1.83
2024-04-10T07:48:53.261Z,2.60
2024-04-10T07:51:26.025Z,2.20
2024-04-10T07:53:53.486Z,2.13
2024-04-10T07:56:23.572Z,1.60
2024-04-10T07:58:50.952Z,1.83
2024-04-10T08:01:21.211Z,2.50
2024-04-10T08:03:49.133Z,1.90
2024-04-10T08:06:19.230Z,2.30
2024-04-10T08:08:48.900Z,2.20
2024-04-10T08:11:20.272Z,2.33
2024-04-10T08:13:47.582Z,2.13
2024-04-10T08:16:18.758Z,2.23
2024-04-10T08:18:46.875Z,2.40
2024-04-10T08:21:18.214Z,1.93
2024-04-10T08:23:50.398Z,2.43
2024-04-10T08:26:22.028Z,2.40
2024-04-10T08:28:52.313Z,2.10
2024-04-10T08:31:24.908Z,2.47
2024-04-10T08:33:54.199Z,1.90
2024-04-10T08:36:26.217Z,2.60
2024-04-10T08:38:56.531Z,2.00
2024-04-10T08:41:26.852Z,2.00
2024-04-10T08:43:54.656Z,2.30
2024-04-10T08:46:25.364Z,1.93
2024-04-10T08:48:57.438Z,2.83
2024-04-10T08:51:30.053Z,2.30
2024-04-10T08:54:00.278Z,2.20
2024-04-10T08:56:29.974Z,2.03
2024-04-10T08:58:57.137Z,2.40
2024-04-10T09:01:32.593Z,2.40
2024-04-10T09:04:04.960Z,2.23
2024-04-10T09:06:35.270Z,1.97
2024-04-10T09:09:08.066Z,2.30
2024-04-10T09:11:38.824Z,2.60
2024-04-10T09:14:08.491Z,2.20
2024-04-10T09:16:39.112Z,2.40
2024-04-10T09:19:10.702Z,2.70
2024-04-10T09:21:40.640Z,2.17
2024-04-10T09:24:10.936Z,1.83
2024-04-10T09:26:43.219Z,2.10
2024-04-10T09:29:11.456Z,1.80
2024-04-10T09:31:42.081Z,1.97
2024-04-10T09:34:09.754Z,1.77
2024-04-10T09:36:41.535Z,2.20
2024-04-10T09:39:11.355Z,2.17
2024-04-10T09:41:42.112Z,1.77
2024-04-10T09:44:11.995Z,1.90
2024-04-10T09:46:42.357Z,2.20
2024-04-10T09:49:12.478Z,2.00
2024-04-10T09:51:43.759Z,2.07
2024-04-10T09:54:13.551Z,2.20
2024-04-10T09:56:45.317Z,1.90
2024-04-10T09:59:14.405Z,1.90
2024-04-10T10:01:44.311Z,2.00
2024-04-10T10:04:11.690Z,1.83
2024-04-10T10:06:41.690Z,1.90
2024-04-10T10:09:08.767Z,2.00
2024-04-10T10:11:41.265Z,2.00
2024-04-10T10:14:11.364Z,2.37
2024-04-10T10:16:41.013Z,2.50
2024-04-10T10:19:08.272Z,2.10
2024-04-10T10:21:38.834Z,2.00
2024-04-10T10:24:08.080Z,1.80
2024-04-10T10:26:37.931Z,2.43
2024-04-10T10:29:10.525Z,2.00
2024-04-10T10:31:41.784Z,1.73
2024-04-10T10:34:13.474Z,1.70
2024-04-10T10:36:47.130Z,1.50
2024-04-10T10:39:15.954Z,2.10
2024-04-10T10:41:45.905Z,1.60
2024-04-10T10:44:21.315Z,2.17
2024-04-10T10:46:51.160Z,2.17
2024-04-10T10:49:18.463Z,1.60
2024-04-10T10:51:48.290Z,1.60
2024-04-10T10:54:17.531Z,2.00
2024-04-10T10:56:47.258Z,1.70
2024-04-10T10:59:16.969Z,1.93
2024-04-10T11:01:46.674Z,1.80
2024-04-10T11:04:16.617Z,1.70
2024-04-10T11:06:47.093Z,1.70
2024-04-10T11:09:17.114Z,2.00
2024-04-10T11:11:47.712Z,1.60
2024-04-10T11:14:24.441Z,1.67
2024-04-10T11:17:01.889Z,1.90
2024-04-10T11:19:38.649Z,2.10
2024-04-10T11:22:21.001Z,1.87
2024-04-10T11:24:48.503Z,1.77
2024-04-10T11:27:20.336Z,1.80
2024-04-10T11:29:51.792Z,1.93
2024-04-10T11:32:21.783Z,1.70
2024-04-10T11:34:49.099Z,1.97
2024-04-10T11:37:18.949Z,1.83
2024-04-10T11:39:46.119Z,2.10
2024-04-10T11:42:16.074Z,1.87
2024-04-10T11:44:43.250Z,2.03
2024-04-10T11:47:15.569Z,2.53
2024-04-10T11:49:43.846Z,1.93
2024-04-10T11:52:13.468Z,2.00
2024-04-10T11:54:40.626Z,1.90
2024-04-10T11:57:10.323Z,2.00
2024-04-10T11:59:37.633Z,1.80
2024-04-10T12:02:07.457Z,2.57
2024-04-10T12:04:39.734Z,1.90
2024-04-10T12:07:06.893Z,2.07
2024-04-10T12:09:38.632Z,2.00
2024-04-10T12:12:06.315Z,2.47
2024-04-10T12:14:36.284Z,3.83
2024-04-10T12:17:03.799Z,2.60
2024-04-10T12:19:33.479Z,2.40
2024-04-10T12:22:05.990Z,2.10
2024-04-10T12:24:35.700Z,1.77
2024-04-10T12:27:05.583Z,2.07
2024-04-10T12:29:32.805Z,2.20
2024-04-10T12:32:04.846Z,2.57
2024-04-10T12:34:33.121Z,5.13
2024-04-10T12:37:21.730Z,3.27
2024-04-10T12:39:51.808Z,3.07
2024-04-10T12:42:21.575Z,2.80
2024-04-10T12:44:51.379Z,2.23
2024-04-10T12:47:19.278Z,2.23
2024-04-10T12:49:48.983Z,2.13
2024-04-10T12:52:18.671Z,2.20
2024-04-10T12:54:48.418Z,2.00
2024-04-10T12:57:16.072Z,2.10
2024-04-10T12:59:49.978Z,2.07
2024-04-10T13:02:17.659Z,1.90
2024-04-10T13:04:50.837Z,1.60
2024-04-10T13:07:20.511Z,2.10
2024-04-10T13:09:52.789Z,1.57
2024-04-10T13:12:20.423Z,2.07
2024-04-10T13:14:50.744Z,1.70
2024-04-10T13:17:18.229Z,1.63
2024-04-10T13:19:48.243Z,1.40
2024-04-10T13:22:15.362Z,1.50
2024-04-10T13:24:47.686Z,2.00
2024-04-10T13:27:15.418Z,1.47
2024-04-10T13:29:45.076Z,1.43
2024-04-10T13:32:12.334Z,1.97
2024-04-10T13:34:42.112Z,1.67
2024-04-10T13:37:09.605Z,1.30
2024-04-10T13:39:39.877Z,1.40
2024-04-10T13:42:09.605Z,1.50
2024-04-10T13:44:39.373Z,1.53
2024-04-10T13:47:07.177Z,1.60
2024-04-10T13:49:36.948Z,1.50
2024-04-10T13:52:04.411Z,1.43
2024-04-10T13:54:35.966Z,1.50
2024-04-10T13:57:03.276Z,1.40
2024-04-10T13:59:35.685Z,1.73
2024-04-10T14:02:02.885Z,1.60
2024-04-10T14:04:32.566Z,1.57
2024-04-10T14:06:59.704Z,1.57
2024-04-10T14:09:29.455Z,1.60
2024-04-10T14:11:56.554Z,1.67
2024-04-10T14:14:26.351Z,1.33
2024-04-10T14:16:58.699Z,1.30
2024-04-10T14:19:30.351Z,1.20
2024-04-10T14:21:57.396Z,1.73
2024-04-10T14:24:27.002Z,1.60
2024-04-10T14:26:54.137Z,1.20
2024-04-10T14:29:24.466Z,1.17
2024-04-10T14:31:51.508Z,1.70
2024-04-10T14:34:23.774Z,1.30
2024-04-10T14:36:50.834Z,1.40
2024-04-10T14:39:21.511Z,1.30
2024-04-10T14:41:49.358Z,1.20
2024-04-10T14:44:34.858Z,1.20
2024-04-10T14:47:04.756Z,1.50
2024-04-10T14:49:34.497Z,1.47
2024-04-10T14:52:04.341Z,1.30
2024-04-10T14:54:31.775Z,1.27
2024-04-10T14:57:01.963Z,1.40
2024-04-10T14:59:30.054Z,1.30
2024-04-10T15:01:59.720Z,1.30
2024-04-10T15:04:26.851Z,1.00
2024-04-10T15:06:59.384Z,1.40
2024-04-10T15:09:26.433Z,1.07
2024-04-10T15:11:56.429Z,1.00
2024-04-10T15:14:23.607Z,1.20
2024-04-10T15:16:53.350Z,1.50
2024-04-10T15:19:20.402Z,1.10
2024-04-10T15:21:50.022Z,1.40
2024-04-10T15:24:19.772Z,1.23
2024-04-10T15:26:49.788Z,1.30
2024-04-10T15:29:16.897Z,1.40
2024-04-10T15:31:46.568Z,1.30
2024-04-10T15:34:15.264Z,1.13
2024-04-10T15:36:45.690Z,1.25
2024-04-10T15:39:12.822Z,1.40
2024-04-10T15:41:47.902Z,1.40
2024-04-10T15:44:15.100Z,1.17
2024-04-10T15:46:44.860Z,1.00
2024-04-10T15:49:12.248Z,1.02
2024-04-10T15:51:41.967Z,1.30
2024-04-10T15:54:09.546Z,1.20
2024-04-10T15:56:39.312Z,0.93
2024-04-10T15:59:08.975Z,1.00
2024-04-10T16:01:38.606Z,1.27
2024-04-10T16:04:06.289Z,1.03
2024-04-10T16:06:36.053Z,1.60
2024-04-10T16:09:03.991Z,1.00
2024-04-10T16:11:40.822Z,1.30
2024-04-10T16:14:10.995Z,2.60
2024-04-10T16:16:40.713Z,1.80
2024-04-10T16:19:07.763Z,1.23
2024-04-10T16:21:37.477Z,1.17
2024-04-10T16:24:08.728Z,1.20
2024-04-10T16:26:38.875Z,1.03
2024-04-10T16:29:06.540Z,1.10
2024-04-10T16:31:38.801Z,1.00
2024-04-10T16:34:06.091Z,1.10
2024-04-10T16:36:35.839Z,0.90
2024-04-10T16:39:03.017Z,0.90
2024-04-10T16:41:32.697Z,1.10
2024-04-10T16:44:00.018Z,1.00
2024-04-10T16:46:29.734Z,1.00
2024-04-10T16:48:59.821Z,1.23
2024-04-10T16:51:29.449Z,1.10
2024-04-10T16:53:56.488Z,1.10
2024-04-10T16:56:27.570Z,1.30
2024-04-10T16:58:54.682Z,2.90
2024-04-10T17:01:24.852Z,2.77
2024-04-10T17:03:52.193Z,1.10
2024-04-10T17:06:24.731Z,1.17
2024-04-10T17:08:51.977Z,1.10
2024-04-10T17:11:21.998Z,0.77
2024-04-10T17:13:49.124Z,0.90
2024-04-10T17:16:18.979Z,1.00
2024-04-10T17:19:04.429Z,1.10
2024-04-10T17:21:49.959Z,1.30
2024-04-10T17:24:20.144Z,1.30
2024-04-10T17:26:50.064Z,1.00
2024-04-10T17:29:22.892Z,1.30
2024-04-10T17:31:54.815Z,1.10
2024-04-10T17:34:22.525Z,1.10
2024-04-10T17:36:57.376Z,0.90
2024-04-10T17:39:26.420Z,1.50
2024-04-10T17:41:56.982Z,3.10
2024-04-10T17:44:24.410Z,1.70
2024-04-10T17:46:55.495Z,1.20
2024-04-10T17:49:22.596Z,1.20
2024-04-10T17:51:54.856Z,1.00
2024-04-10T17:54:21.968Z,1.00
2024-04-10T17:56:51.769Z,0.90
2024-04-10T17:59:18.942Z,1.10
2024-04-10T18:01:48.988Z,1.00
2024-04-10T18:04:16.279Z,1.10
2024-04-10T18:06:45.997Z,0.90
2024-04-10T18:09:15.728Z,1.00
2024-04-10T18:11:45.732Z,1.00
2024-04-10T18:14:12.987Z,1.40
2024-04-10T18:16:42.605Z,0.93
2024-04-10T18:19:09.741Z,1.00
2024-04-10T18:21:39.425Z,0.80
2024-04-10T18:24:07.437Z,1.00
2024-04-10T18:26:39.895Z,1.10
2024-04-10T18:29:09.185Z,1.00
2024-04-10T18:31:38.867Z,0.90
2024-04-10T18:34:06.132Z,1.50
2024-04-10T18:36:35.882Z,1.40
2024-04-10T18:39:04.229Z,1.77
2024-04-10T18:41:34.788Z,1.03
2024-04-10T18:44:04.996Z,1.30
2024-04-10T18:46:34.700Z,0.90
2024-04-10T18:49:01.956Z,1.10
2024-04-10T18:51:31.758Z,1.27
2024-04-10T18:53:59.788Z,1.00
2024-04-10T18:56:29.810Z,1.13
2024-04-10T18:58:56.949Z,1.77
2024-04-10T19:01:29.487Z,1.80
2024-04-10T19:03:56.958Z,1.70
2024-04-10T19:06:27.627Z,1.77
2024-04-10T19:08:54.830Z,2.40
2024-04-10T19:11:24.766Z,2.20
2024-04-10T19:13:51.933Z,1.93
2024-04-10T19:16:21.750Z,1.80
2024-04-10T19:18:53.027Z,1.77
2024-04-10T19:21:23.069Z,1.60
2024-04-10T19:23:50.350Z,2.10
2024-04-10T19:26:20.169Z,2.07
2024-04-10T19:28:47.257Z,1.40
2024-04-10T19:31:16.955Z,1.37
2024-04-10T19:33:45.028Z,1.97
2024-04-10T19:36:18.442Z,2.30
2024-04-10T19:38:45.912Z,2.10
2024-04-10T19:41:17.862Z,1.93
2024-04-10T19:43:46.616Z,1.50
2024-04-10T19:46:17.338Z,1.47
2024-04-10T19:48:45.230Z,2.10
2024-04-10T19:51:17.864Z,1.70
2024-04-10T19:53:46.475Z,1.50
2024-04-10T19:56:16.359Z,1.60
2024-04-10T19:58:45.378Z,1.60
2024-04-10T20:01:15.152Z,1.37
2024-04-10T20:03:43.176Z,1.20
2024-04-10T20:06:13.847Z,1.20
2024-04-10T20:08:43.643Z,1.30
2024-04-10T20:11:13.661Z,1.67
2024-04-10T20:13:42.453Z,1.60
2024-04-10T20:16:12.557Z,1.40
2024-04-10T20:18:42.417Z,1.50
2024-04-10T20:21:15.254Z,1.37
2024-04-10T20:23:45.193Z,1.23
2024-04-10T20:26:17.127Z,1.60
2024-04-10T20:28:45.389Z,1.43
2024-04-10T20:31:17.298Z,1.27
2024-04-10T20:33:44.911Z,1.40
2024-04-10T20:36:15.068Z,1.73
2024-04-10T20:38:44.962Z,1.80
2024-04-10T20:41:16.942Z,1.60
2024-04-10T20:43:45.055Z,2.10
2024-04-10T20:46:15.092Z,1.80
2024-04-10T20:48:48.744Z,1.93
2024-04-10T20:51:20.184Z,1.70
2024-04-10T20:53:51.279Z,1.70
2024-04-10T20:56:23.187Z,1.80
2024-04-10T20:58:51.121Z,1.43
2024-04-10T21:01:22.099Z,1.50
2024-04-10T21:03:51.203Z,1.60
2024-04-10T21:06:18.681Z,1.60
2024-04-10T21:09:06.812Z,1.90
2024-04-10T21:11:56.663Z,2.00
2024-04-10T21:14:43.213Z,1.33
2024-04-10T21:17:29.218Z,1.50
2024-04-10T21:20:14.757Z,1.63
2024-04-10T21:23:00.398Z,1.67
2024-04-10T21:25:49.816Z,2.20
2024-04-10T21:28:38.455Z,2.50
2024-04-10T21:31:25.115Z,2.17
2024-04-10T21:34:11.443Z,2.43
2024-04-10T21:36:57.155Z,1.83
2024-04-10T21:39:44.553Z,1.60
2024-04-10T21:42:30.128Z,1.53
2024-04-10T21:45:18.178Z,1.87
2024-04-10T21:48:04.305Z,1.70
2024-04-10T21:50:50.374Z,1.60
2024-04-10T21:53:36.858Z,1.97
2024-04-10T21:56:23.415Z,2.80
2024-04-10T21:59:08.887Z,2.47
2024-04-10T22:04:46.921Z,2.10
2024-04-10T22:07:34.517Z,2.80
2024-04-10T22:10:01.838Z,2.13
2024-04-10T22:12:31.771Z,2.43
2024-04-10T22:14:59.118Z,3.00
2024-04-10T22:17:47.622Z,3.00
2024-04-10T22:20:33.651Z,2.50
2024-04-10T22:23:30.714Z,2.40
2024-04-10T22:26:02.126Z,2.90
2024-04-10T22:28:31.945Z,2.10
2024-04-10T22:31:01.748Z,2.00
2024-04-10T22:33:34.171Z,1.80
2024-04-10T22:36:05.077Z,1.73
2024-04-10T22:38:34.991Z,1.80
2024-04-10T22:41:02.232Z,2.50
2024-04-10T22:43:32.421Z,2.10
2024-04-10T22:46:00.804Z,1.60
2024-04-10T22:48:33.190Z,1.57
2024-04-10T22:51:00.639Z,1.80
2024-04-10T22:53:30.384Z,1.67
2024-04-10T22:55:57.557Z,1.47
2024-04-10T22:58:27.698Z,1.47
2024-04-10T23:00:56.202Z,1.50
2024-04-10T23:03:25.997Z,1.40
2024-04-10T23:06:02.338Z,1.57
2024-04-10T23:08:37.089Z,1.47
2024-04-10T23:11:04.807Z,1.70
2024-04-10T23:13:34.526Z,2.10
2024-04-10T23:16:01.637Z,2.13
2024-04-10T23:18:42.832Z,2.10
2024-04-10T23:21:22.037Z,2.00
2024-04-10T23:23:52.053Z,1.90
2024-04-10T23:26:19.171Z,1.87
2024-04-10T23:28:48.892Z,2.00
2024-04-10T23:31:17.308Z,1.53
2024-04-10T23:33:47.118Z,1.77
2024-04-10T23:36:14.350Z,2.00
2024-04-10T23:38:46.666Z,2.47
2024-04-10T23:41:13.879Z,2.87
2024-04-10T23:43:43.580Z,3.40
2024-04-10T23:46:10.733Z,3.40
2024-04-10T23:48:41.489Z,3.33
2024-04-10T23:51:09.994Z,3.70
2024-04-10T23:53:39.854Z,2.87
2024-04-10T23:56:10.444Z,2.90
2024-04-10T23:58:40.436Z,3.00
